Tuesday, October 16, 2018, 10:00 AM GMT
Back to Local

CYYG, Charlottetown, P. E. I.

Location: , , Canada Lat: 46.283
Local Time: 10:00 AM GMT (10:00 GMT) Lon: -63.133
Time Zone: GMT Elev: 157 ft

Show me the last for .
Show Decoded

2018-10-16 09:21 METAR CYYG 160921Z 20015KT 15SM -RA OVC006 15/15 A2928 RMK SF8 PRESFR SLP918
                 DENSITY ALT 1000FT =
2018-10-16 09:00 METAR CYYG 160900Z 20013KT 6SM RA OVC006 14/14 A2932 RMK SF8 SLP929 DENSITY ALT
                 900FT =
2018-10-16 08:00 METAR CYYG 160800Z 19012KT 8SM -RA OVC005 14/14 A2936 RMK SF8 PRESFR SLP944
                 DENSITY ALT 700FT =
2018-10-16 07:00 METAR CYYG 160700Z 21011G16KT 6SM RA OVC006 13/13 A2944 RMK SF8 SLP973 DENSITY
                 ALT 600FT =
2018-10-16 06:00 METAR CYYG 160600Z 17016G22KT 6SM RA BKN005 OVC014 12/12 A2951 RMK SF6SC2 /R11/
                 PRESFR SLP994 DENSITY ALT 400FT =
2018-10-16 05:00 METAR CYYG 160500Z 18018G23KT 10SM -RA SCT008 OVC014 12/11 A2960 RMK SF3SC5
                 PRESFR SLP027 DENSITY ALT 200FT =
2018-10-16 04:00 METAR CYYG 160400Z 18017G26KT 12SM -RA BKN008 OVC016 11/11 A2968 RMK ST5SC3
                 SLP054 =
2018-10-16 03:00 METAR CYYG 160300Z 17020G27KT 12SM -RA FEW009 BKN016 OVC044 11/10 A2975 RMK
                 SF2SC4SC2 PRESFR SLP077 =
2018-10-16 02:00 METAR CYYG 160200Z 17020G27KT 12SM -RA OVC074 11/09 A2982 RMK AC8 PRESFR SLP100
                 =
2018-10-16 01:00 METAR CYYG 160100Z 17018G26KT 12SM -RA OVC074 11/08 A2989 RMK AC8 PRESFR SLP125
                 =
2018-10-16 00:00 METAR CYYG 160000Z 18017G28KT 15SM -RA OVC077 10/08 A2994 RMK AC8 SLP141 =
2018-10-15 23:06 METAR CYYG 152306Z 18018G25KT 15SM -RA OVC076 12/07 A2997 RMK AC8 PRESFR SLP152
                 =
2018-10-15 23:00 METAR CYYG 152300Z 18016G23KT 15SM OVC085 12/07 A2998 RMK AC8 SLP155 =
2018-10-15 22:00 METAR CYYG 152200Z 17009KT 15SM SCT140 BKN190 10/05 A3000 RMK AC3CI3 SLP163 =
2018-10-15 21:00 METAR CYYG 152100Z 18008KT 15SM SCT160 BKN260 11/04 A3003 RMK AC3CI3 SLP173 =
2018-10-15 20:00 METAR CYYG 152000Z 19014G19KT 15SM FEW060 FEW120 BKN220 12/03 A3006 RMK
                 SC1AC1CS6 SC TR AC TR SLP181 =
2018-10-15 19:00 METAR CYYG 151900Z 19013KT 15SM FEW060 SCT120 BKN240 12/04 A3009 RMK SC1AC3CI4
                 SC TR SLP192 =
2018-10-15 18:00 METAR CYYG 151800Z 22011KT 15SM FEW050 SCT130 BKN240 13/04 A3011 RMK SC1AC3CI3
                 SLP198 =
2018-10-15 17:00 METAR CYYG 151700Z 22012KT 15SM SCT130 BKN240 12/03 A3012 RMK AC4CI3 SLP202 =
2018-10-15 16:00 METAR CYYG 151600Z 20010KT 15SM FEW140 BKN240 11/03 A3014 RMK AC2CI5 SLP211 =
2018-10-15 15:00 METAR CYYG 151500Z 22011KT 15SM FEW140 BKN240 11/03 A3016 RMK AC1CI5 AC TR
                 SLP218 =
2018-10-15 14:00 METAR CYYG 151400Z 24007KT 15SM FEW035 BKN240 09/03 A3018 RMK SC1CC5 SLP222 =
2018-10-15 13:00 METAR CYYG 151300Z 24009KT 15SM FEW030 SCT240 08/04 A3018 RMK SC1CI4 SC TR
                 SLP224 =
2018-10-15 12:00 METAR CYYG 151200Z 26006KT 15SM FEW025 SCT240 05/03 A3018 RMK SC1CI3 SLP222 =
2018-10-15 11:00 METAR CYYG 151100Z 24005KT 15SM FEW025 SCT240 03/01 A3015 RMK SC1CC3 SC TR
                 SLP214 =
2018-10-15 10:05 METAR CYYG 151005Z 21006KT 200V260 15SM FEW025 02/00 A3014 RMK SC1 SC TR SLP209
                 =

Support USWX by starting your Amazon purchase here.